createdAt,value
2019-04-24T00:29:55.736Z,13.30
2019-04-24T00:32:39.419Z,13.30
2019-04-24T00:35:30.183Z,13.40
2019-04-24T00:38:14.300Z,13.40
2019-04-24T00:41:06.431Z,13.40
2019-04-24T00:46:32.616Z,13.10
2019-04-24T00:49:04.142Z,13.00
2019-04-24T00:51:44.640Z,13.10
2019-04-24T00:57:06.917Z,13.00
2019-04-24T00:59:41.002Z,13.00
2019-04-24T01:08:54.383Z,12.90
2019-04-24T01:11:35.570Z,12.50
2019-04-24T01:14:27.855Z,12.10
2019-04-24T01:17:14.430Z,11.90
2019-04-24T01:20:02.391Z,12.00
2019-04-24T01:22:53.954Z,12.10
2019-04-24T01:25:25.015Z,12.10
2019-04-24T01:28:04.154Z,12.20
2019-04-24T01:40:06.518Z,11.90
2019-04-24T01:46:01.774Z,12.10
2019-04-24T01:49:00.711Z,12.10
2019-04-24T01:54:12.707Z,12.00
2019-04-24T01:56:59.421Z,11.80
2019-04-24T01:59:37.719Z,11.70
2019-04-24T02:02:28.806Z,11.70
2019-04-24T02:11:25.027Z,12.00
2019-04-24T02:13:49.003Z,11.80
2019-04-24T02:16:36.012Z,11.70
2019-04-24T02:19:18.796Z,11.50
2019-04-24T02:22:11.487Z,11.00
2019-04-24T02:24:58.704Z,10.90
2019-04-24T02:30:33.150Z,10.80
2019-04-24T02:33:35.244Z,10.80
2019-04-24T02:42:42.709Z,11.10
2019-04-24T02:45:45.913Z,11.20
2019-04-24T02:51:09.527Z,11.10
2019-04-24T02:56:36.087Z,11.20
2019-04-24T02:59:20.378Z,11.20
2019-04-24T03:02:11.799Z,11.10
2019-04-24T03:10:31.108Z,11.20
2019-04-24T03:19:11.490Z,11.20
2019-04-24T03:21:56.646Z,11.20
2019-04-24T03:24:26.560Z,11.20
2019-04-24T03:33:27.788Z,10.40
2019-04-24T03:38:50.326Z,10.70
2019-04-24T03:44:43.033Z,10.60
2019-04-24T03:46:54.454Z,10.70
2019-04-24T03:52:36.359Z,10.90
2019-04-24T03:55:48.589Z,10.80
2019-04-24T03:58:40.134Z,10.80
2019-04-24T04:01:27.154Z,10.70
2019-04-24T04:04:18.879Z,10.60
2019-04-24T04:12:26.046Z,10.40
2019-04-24T04:15:02.414Z,10.20
2019-04-24T04:18:03.581Z,10.30
2019-04-24T04:29:32.088Z,10.50
2019-04-24T04:35:26.501Z,10.80
2019-04-24T04:38:10.137Z,10.90
2019-04-24T05:05:26.922Z,16.70
2019-04-24T05:08:13.324Z,17.90
2019-04-24T05:10:55.508Z,18.90
2019-04-24T05:13:21.999Z,19.80
2019-04-24T05:21:42.412Z,20.10
2019-04-24T05:27:16.799Z,19.70
2019-04-24T05:36:19.733Z,15.60
2019-04-24T05:44:41.048Z,14.70
2019-04-24T05:51:13.377Z,13.70
2019-04-24T05:54:12.406Z,13.10
2019-04-24T06:00:27.788Z,12.90
2019-04-24T06:03:31.203Z,12.70
2019-04-24T06:06:57.238Z,12.70
2019-04-24T06:09:38.682Z,12.90
2019-04-24T06:13:04.544Z,12.90
2019-04-24T06:15:59.086Z,12.90
2019-04-24T06:19:03.152Z,13.00
2019-04-24T06:22:03.386Z,12.80
2019-04-24T06:24:37.748Z,12.90
2019-04-24T06:30:29.230Z,12.90
2019-04-24T06:33:01.031Z,12.90
2019-04-24T06:35:54.374Z,13.00
2019-04-24T06:38:37.515Z,13.20
2019-04-24T06:44:01.981Z,13.30
2019-04-24T06:47:20.855Z,13.40
2019-04-24T06:49:15.421Z,13.50
2019-04-24T06:57:59.062Z,13.70
2019-04-24T07:07:27.604Z,13.90
2019-04-24T07:10:41.350Z,14.10
2019-04-24T07:19:27.895Z,14.40
2019-04-24T07:22:19.515Z,14.40
2019-04-24T07:25:34.624Z,14.50
2019-04-24T07:34:59.539Z,14.80
2019-04-24T07:37:52.662Z,15.00
2019-04-24T07:40:31.758Z,15.20
2019-04-24T07:46:21.557Z,15.30
2019-04-24T07:52:11.206Z,15.20
2019-04-24T07:57:40.230Z,15.40
2019-04-24T08:00:40.497Z,15.30
2019-04-24T08:06:04.477Z,15.50
2019-04-24T08:08:59.727Z,15.60
2019-04-24T08:11:35.797Z,15.60
2019-04-24T08:14:35.103Z,15.70
2019-04-24T08:17:00.139Z,16.00
2019-04-24T08:22:35.366Z,16.00
2019-04-24T08:27:50.156Z,16.20
2019-04-24T08:30:37.067Z,16.30
2019-04-24T08:33:18.369Z,16.30
2019-04-24T08:45:04.022Z,16.50
2019-04-24T08:47:52.692Z,16.80
2019-04-24T08:50:57.489Z,17.00
2019-04-24T08:53:22.291Z,17.10
2019-04-24T08:55:48.514Z,17.10
2019-04-24T08:58:37.954Z,17.20
2019-04-24T09:06:51.895Z,17.30
2019-04-24T09:10:31.337Z,17.40
2019-04-24T09:15:57.874Z,17.40
2019-04-24T09:18:58.670Z,17.60
2019-04-24T09:21:39.443Z,17.70
2019-04-24T09:24:40.279Z,17.70
2019-04-24T09:36:54.698Z,17.90
2019-04-24T09:46:07.814Z,18.20
2019-04-24T09:48:50.795Z,18.30
2019-04-24T09:51:25.464Z,18.30
2019-04-24T09:54:21.058Z,18.30
2019-04-24T09:57:10.376Z,18.40
2019-04-24T09:59:47.706Z,18.50
2019-04-24T10:02:57.632Z,18.70
2019-04-24T10:06:35.805Z,18.70
2019-04-24T10:08:58.011Z,18.80
2019-04-24T10:14:39.943Z,18.80
2019-04-24T10:17:44.522Z,18.80
2019-04-24T10:25:52.278Z,18.90
2019-04-24T10:29:23.415Z,18.90
2019-04-24T10:41:56.736Z,18.90
2019-04-24T10:45:08.588Z,19.10
2019-04-24T10:48:06.522Z,19.20
2019-04-24T10:51:03.735Z,19.20
2019-04-24T10:56:36.491Z,19.30
2019-04-24T10:59:17.268Z,19.40
2019-04-24T11:02:28.027Z,19.50
2019-04-24T11:05:34.435Z,19.60
2019-04-24T11:17:42.377Z,20.00
2019-04-24T11:24:04.553Z,20.10
2019-04-24T11:26:55.339Z,20.20
2019-04-24T11:29:56.054Z,20.30
2019-04-24T11:35:28.919Z,20.30
2019-04-24T11:41:38.522Z,20.60
2019-04-24T11:53:19.522Z,20.70
2019-04-24T11:56:13.912Z,20.80
2019-04-24T12:06:28.012Z,21.40
2019-04-24T12:11:35.481Z,21.50
2019-04-24T12:14:31.107Z,21.40
2019-04-24T12:17:08.003Z,21.30
2019-04-24T12:23:31.045Z,21.30
2019-04-24T12:28:54.055Z,21.40
2019-04-24T12:43:13.520Z,22.00
2019-04-24T12:46:24.973Z,22.10
2019-04-24T12:48:50.869Z,22.10
2019-04-24T12:51:31.864Z,22.20
2019-04-24T13:06:04.261Z,22.30
2019-04-24T13:09:19.410Z,22.40
2019-04-24T13:12:29.116Z,22.50
2019-04-24T13:15:34.836Z,22.70
2019-04-24T13:18:16.440Z,22.80
2019-04-24T13:20:36.863Z,22.90
2019-04-24T13:23:35.959Z,22.90
2019-04-24T13:35:55.702Z,22.90
2019-04-24T13:46:36.399Z,22.90
2019-04-24T13:49:13.858Z,23.00
2019-04-24T13:52:19.287Z,23.20
2019-04-24T13:54:49.302Z,23.30
2019-04-24T13:57:27.444Z,23.40
2019-04-24T14:00:21.077Z,23.40
2019-04-24T14:05:44.093Z,23.50
2019-04-24T14:08:27.756Z,23.60
2019-04-24T14:12:23.776Z,23.50
2019-04-24T14:13:44.514Z,23.50
2019-04-24T14:16:18.908Z,23.50
2019-04-24T14:30:56.418Z,23.70
2019-04-24T14:33:27.973Z,23.70
2019-04-24T14:36:20.199Z,23.80
2019-04-24T14:38:57.776Z,23.80
2019-04-24T14:41:26.561Z,23.90
2019-04-24T14:50:26.305Z,23.70
2019-04-24T14:53:06.984Z,23.70
2019-04-24T15:03:38.065Z,24.00
2019-04-24T15:12:07.350Z,24.00
2019-04-24T15:17:43.896Z,23.90
2019-04-24T15:20:35.757Z,23.80
2019-04-24T15:23:19.106Z,23.90
2019-04-24T15:28:58.066Z,23.90
2019-04-24T15:31:35.764Z,23.90
2019-04-24T15:37:09.834Z,23.90
2019-04-24T15:39:47.631Z,23.90
2019-04-24T15:42:14.508Z,23.80
2019-04-24T15:45:02.024Z,23.70
2019-04-24T15:48:03.485Z,23.80
2019-04-24T15:52:37.086Z,23.80
2019-04-24T15:58:43.123Z,24.00
2019-04-24T16:02:04.536Z,24.00
2019-04-24T16:07:07.082Z,24.00
2019-04-24T16:09:58.806Z,23.90
2019-04-24T16:12:39.176Z,23.90
2019-04-24T16:18:54.204Z,23.80
2019-04-24T16:24:31.151Z,23.70
2019-04-24T16:32:20.492Z,23.60
2019-04-24T16:34:51.944Z,23.60
2019-04-24T16:37:38.232Z,23.50
2019-04-24T16:48:58.310Z,23.40
2019-04-24T16:54:17.193Z,23.40
2019-04-24T16:59:28.927Z,23.20
2019-04-24T17:02:18.665Z,23.10
2019-04-24T17:08:04.190Z,23.00
2019-04-24T17:13:22.271Z,23.00
2019-04-24T17:16:13.349Z,22.90
2019-04-24T17:19:09.361Z,22.80
2019-04-24T17:21:38.378Z,22.70
2019-04-24T17:24:05.815Z,22.70
2019-04-24T17:27:01.111Z,22.60
2019-04-24T17:29:33.624Z,22.60
2019-04-24T17:35:01.605Z,22.40
2019-04-24T17:37:09.646Z,22.40
2019-04-24T17:40:12.626Z,22.30
2019-04-24T17:43:43.695Z,22.20
2019-04-24T17:46:22.981Z,22.00
2019-04-24T17:51:52.854Z,21.80
2019-04-24T17:54:37.314Z,21.70
2019-04-24T17:57:16.809Z,20.90
2019-04-24T17:59:34.405Z,20.00
2019-04-24T18:02:16.904Z,19.10
2019-04-24T18:04:57.246Z,18.90
2019-04-24T18:07:38.903Z,18.60
2019-04-24T18:10:19.563Z,18.50
2019-04-24T18:13:01.270Z,18.20
2019-04-24T18:15:42.941Z,18.10
2019-04-24T18:18:23.485Z,17.90
2019-04-24T18:21:04.696Z,17.60
2019-04-24T18:23:46.431Z,17.50
2019-04-24T18:26:49.212Z,17.20
2019-04-24T18:29:29.645Z,17.00
2019-04-24T18:32:11.789Z,17.00
2019-04-24T18:34:52.134Z,16.70
2019-04-24T18:37:32.497Z,16.60
2019-04-24T18:40:13.980Z,16.50
2019-04-24T18:42:54.270Z,16.30
2019-04-24T18:45:34.370Z,16.20
2019-04-24T18:48:14.956Z,16.10
2019-04-24T18:50:55.214Z,16.20
2019-04-24T18:53:34.888Z,16.00
2019-04-24T18:56:16.013Z,15.90
2019-04-24T18:58:57.049Z,15.80
2019-04-24T19:01:38.222Z,15.70
2019-04-24T19:04:18.811Z,15.50
2019-04-24T19:06:59.205Z,15.20
2019-04-24T19:09:41.983Z,15.10
2019-04-24T19:12:22.261Z,15.10
2019-04-24T19:15:02.619Z,14.90
2019-04-24T19:17:54.268Z,14.90
2019-04-24T19:20:25.629Z,14.80
2019-04-24T19:23:06.996Z,14.80
2019-04-24T19:25:48.670Z,14.80
2019-04-24T19:28:28.749Z,14.70
2019-04-24T19:31:13.382Z,14.60
2019-04-24T19:33:54.085Z,14.40
2019-04-24T19:36:33.511Z,14.50
2019-04-24T19:39:14.277Z,14.50
2019-04-24T19:41:55.246Z,14.50
2019-04-24T19:44:38.569Z,14.40
2019-04-24T19:47:32.624Z,14.30
2019-04-24T19:50:07.454Z,14.30
2019-04-24T19:52:47.082Z,14.20
2019-04-24T19:55:27.318Z,14.10
2019-04-24T19:58:07.494Z,14.10
2019-04-24T20:00:47.494Z,14.10
2019-04-24T20:03:27.310Z,14.00
2019-04-24T20:06:08.385Z,13.90
2019-04-24T20:08:48.984Z,13.80
2019-04-24T20:14:47.160Z,13.90
2019-04-24T20:17:27.057Z,14.00
2019-04-24T20:20:07.413Z,13.80
2019-04-24T20:22:47.435Z,13.80
2019-04-24T20:25:28.076Z,13.90
2019-04-24T20:28:07.773Z,13.90
2019-04-24T20:30:48.265Z,14.00
2019-04-24T20:33:28.377Z,13.90
2019-04-24T20:36:08.641Z,13.90
2019-04-24T20:38:48.689Z,14.00
2019-04-24T20:41:28.518Z,14.00
2019-04-24T20:44:08.942Z,13.80
2019-04-24T20:46:49.133Z,13.80
2019-04-24T20:49:28.838Z,13.70
2019-04-24T20:52:09.257Z,13.80
2019-04-24T20:54:50.467Z,13.70
2019-04-24T20:57:30.213Z,13.60
2019-04-24T21:00:12.478Z,13.50
2019-04-24T21:02:52.889Z,13.40
2019-04-24T21:05:55.577Z,13.40
2019-04-24T21:12:03.538Z,13.30
2019-04-24T21:14:45.769Z,13.30
2019-04-24T21:17:25.670Z,13.20
2019-04-24T21:20:05.842Z,13.20
2019-04-24T21:22:33.413Z,13.20
2019-04-24T21:25:23.095Z,13.20
2019-04-24T21:28:25.274Z,13.30
2019-04-24T21:31:05.279Z,13.30
2019-04-24T21:33:45.239Z,13.10
2019-04-24T21:36:26.117Z,13.20
2019-04-24T21:39:07.701Z,13.20
2019-04-24T21:41:48.474Z,13.10
2019-04-24T21:44:28.753Z,13.10
2019-04-24T21:47:08.868Z,13.10
2019-04-24T21:49:49.093Z,13.10
2019-04-24T21:52:29.137Z,13.00
2019-04-24T21:55:09.122Z,12.90
2019-04-24T21:58:08.811Z,12.90
2019-04-24T22:01:07.869Z,12.80
2019-04-24T22:07:28.469Z,12.90
2019-04-24T22:10:09.841Z,13.00
2019-04-24T22:12:52.634Z,12.90
2019-04-24T22:15:33.753Z,12.70
2019-04-24T22:18:14.745Z,12.30
2019-04-24T22:20:57.128Z,12.30
2019-04-24T22:23:57.178Z,12.20
2019-04-24T22:26:37.873Z,12.30
2019-04-24T22:29:18.113Z,12.40
2019-04-24T22:32:17.562Z,12.50
2019-04-24T22:34:59.865Z,12.40
2019-04-24T22:37:40.366Z,12.40
2019-04-24T22:40:24.937Z,12.40
2019-04-24T22:43:07.014Z,12.20
2019-04-24T22:45:47.178Z,12.20
2019-04-24T22:48:28.835Z,12.10
2019-04-24T22:51:08.630Z,11.90
2019-04-24T22:53:48.730Z,11.80
2019-04-24T22:56:40.830Z,11.80
2019-04-24T22:59:12.312Z,11.80
2019-04-24T23:01:59.703Z,11.70
2019-04-24T23:04:36.014Z,11.40
2019-04-24T23:07:16.137Z,11.30
2019-04-24T23:09:56.086Z,11.30
2019-04-24T23:12:36.645Z,11.30
2019-04-24T23:15:17.590Z,10.60
2019-04-24T23:17:57.481Z,10.70
2019-04-24T23:20:57.001Z,10.90
2019-04-24T23:27:18.614Z,10.80
2019-04-24T23:36:17.581Z,10.80
2019-04-24T23:38:59.328Z,10.70
2019-04-24T23:41:40.359Z,10.70
2019-04-24T23:44:22.197Z,10.60
2019-04-24T23:47:02.617Z,10.70
2019-04-24T23:49:43.274Z,10.20
2019-04-24T23:52:24.133Z,9.90
2019-04-24T23:55:08.785Z,9.70
2019-04-24T23:57:49.882Z,9.90
